createdAt,value
2023-03-17T00:02:10.423Z,98773.72
2023-03-17T00:04:40.231Z,98768.19
2023-03-17T00:07:16.531Z,98775.81
2023-03-17T00:09:44.899Z,98768.19
2023-03-17T00:12:14.035Z,98774.03
2023-03-17T00:14:44.679Z,98768.78
2023-03-17T00:17:15.734Z,98781.25
2023-03-17T00:19:45.690Z,98779.94
2023-03-17T00:22:18.944Z,98775.81
2023-03-17T00:24:47.271Z,98777.69
2023-03-17T00:27:16.121Z,98777.84
2023-03-17T00:29:44.418Z,98774.03
2023-03-17T00:32:18.339Z,98773.34
2023-03-17T00:34:48.247Z,98774.66
2023-03-17T00:37:16.728Z,98773.34
2023-03-17T00:39:45.121Z,98760.28
2023-03-17T00:42:16.016Z,98761.81
2023-03-17T00:44:44.773Z,98754.00
2023-03-17T00:47:13.361Z,98756.47
2023-03-17T00:49:41.399Z,98759.19
2023-03-17T00:52:11.463Z,98763.59
2023-03-17T00:54:39.562Z,98764.78
2023-03-17T00:57:12.834Z,98765.38
2023-03-17T00:59:43.867Z,98765.75
2023-03-17T01:02:13.373Z,98760.75
2023-03-17T01:04:45.608Z,98766.09
2023-03-17T01:07:18.137Z,98750.91
2023-03-17T01:09:46.880Z,98752.16
2023-03-17T01:12:15.021Z,98749.78
2023-03-17T01:14:44.598Z,98750.06
2023-03-17T01:17:18.388Z,98750.63
2023-03-17T01:19:47.377Z,98747.28
2023-03-17T01:22:17.386Z,98753.63
2023-03-17T01:24:47.997Z,98751.25
2023-03-17T01:27:16.567Z,98748.56
2023-03-17T01:29:45.166Z,98743.22
2023-03-17T01:32:13.719Z,98746.44
2023-03-17T01:34:42.331Z,98740.75
2023-03-17T01:37:10.592Z,98731.88
2023-03-17T01:39:40.413Z,98724.03
2023-03-17T01:42:08.883Z,98730.38
2023-03-17T01:44:53.399Z,98718.69
2023-03-17T01:47:25.157Z,98720.22
2023-03-17T01:49:54.345Z,98708.84
2023-03-17T01:52:24.362Z,98718.38
2023-03-17T01:54:59.798Z,98714.44
2023-03-17T01:57:32.787Z,98715.72
2023-03-17T02:00:06.335Z,98709.34
2023-03-17T02:02:37.851Z,98714.84
2023-03-17T02:05:09.495Z,98725.03
2023-03-17T02:07:38.771Z,98721.31
2023-03-17T02:10:10.491Z,98705.94
2023-03-17T02:12:38.883Z,98702.84
2023-03-17T02:15:08.105Z,98699.28
2023-03-17T02:17:37.318Z,98697.78
2023-03-17T02:20:29.856Z,98692.88
2023-03-17T02:23:01.346Z,98689.03
2023-03-17T02:25:31.911Z,98691.28
2023-03-17T02:28:03.401Z,98677.78
2023-03-17T02:30:32.473Z,98676.16
2023-03-17T02:33:00.845Z,98677.31
2023-03-17T02:35:29.303Z,98687.28
2023-03-17T02:37:57.590Z,98688.84
2023-03-17T02:40:27.551Z,98685.28
2023-03-17T02:42:56.734Z,98673.22
2023-03-17T02:45:27.640Z,98672.28
2023-03-17T02:47:57.727Z,98682.66
2023-03-17T02:50:29.096Z,98684.25
2023-03-17T02:52:58.643Z,98681.03
2023-03-17T02:55:28.772Z,98672.91
2023-03-17T02:57:57.065Z,98681.25
2023-03-17T03:00:26.695Z,98686.59
2023-03-17T03:02:55.210Z,98690.38
2023-03-17T03:05:23.862Z,98686.34
2023-03-17T03:07:52.872Z,98678.78
2023-03-17T03:10:21.648Z,98669.69
2023-03-17T03:12:52.037Z,98661.16
2023-03-17T03:15:21.123Z,98655.00
2023-03-17T03:17:49.539Z,98660.09
2023-03-17T03:20:18.611Z,98662.47
2023-03-17T03:22:47.469Z,98661.88
2023-03-17T03:25:16.282Z,98667.88
2023-03-17T03:27:44.433Z,98662.94
2023-03-17T03:30:15.172Z,98674.13
2023-03-17T03:32:43.295Z,98676.25
2023-03-17T03:35:12.509Z,98672.28
2023-03-17T03:37:40.681Z,98668.28
2023-03-17T03:40:10.183Z,98666.31
2023-03-17T03:42:38.594Z,98670.91
2023-03-17T03:45:07.949Z,98667.59
2023-03-17T03:47:37.861Z,98657.75
2023-03-17T03:50:07.343Z,98651.00
2023-03-17T03:52:35.594Z,98662.09
2023-03-17T03:55:03.989Z,98665.34
2023-03-17T03:57:32.310Z,98663.22
2023-03-17T04:00:00.468Z,98664.41
2023-03-17T04:02:28.581Z,98662.19
2023-03-17T04:04:58.316Z,98655.97
2023-03-17T04:07:26.868Z,98655.03
2023-03-17T04:09:55.188Z,98657.19
2023-03-17T04:12:23.629Z,98642.81
2023-03-17T04:14:52.047Z,98648.50
2023-03-17T04:17:22.240Z,98656.72
2023-03-17T04:19:52.448Z,98645.81
2023-03-17T04:22:22.312Z,98637.25
2023-03-17T04:24:52.355Z,98640.06
2023-03-17T04:27:20.580Z,98632.03
2023-03-17T04:29:49.936Z,98633.34
2023-03-17T04:32:18.595Z,98635.53
2023-03-17T04:34:49.316Z,98641.72
2023-03-17T04:37:17.447Z,98637.81
2023-03-17T04:39:47.634Z,98647.28
2023-03-17T04:42:16.264Z,98655.00
2023-03-17T04:44:44.646Z,98654.75
2023-03-17T04:47:13.254Z,98652.00
2023-03-17T04:49:42.656Z,98639.44
2023-03-17T04:52:11.758Z,98636.75
2023-03-17T04:54:40.092Z,98640.75
2023-03-17T04:57:10.691Z,98635.97
2023-03-17T04:59:40.312Z,98627.88
2023-03-17T05:02:08.839Z,98625.09
2023-03-17T05:04:37.828Z,98616.91
2023-03-17T05:07:06.909Z,98616.31
2023-03-17T05:09:35.564Z,98636.06
2023-03-17T05:12:03.651Z,98653.91
2023-03-17T05:14:34.898Z,98660.72
2023-03-17T05:17:03.111Z,98666.63
2023-03-17T05:19:31.261Z,98661.16
2023-03-17T05:21:59.502Z,98660.94
2023-03-17T05:24:27.702Z,98658.88
2023-03-17T05:26:56.309Z,98661.25
2023-03-17T05:29:25.849Z,98655.16
2023-03-17T05:31:55.783Z,98656.25
2023-03-17T05:34:25.510Z,98653.00
2023-03-17T05:36:53.905Z,98648.09
2023-03-17T05:39:22.894Z,98637.91
2023-03-17T05:41:51.694Z,98637.34
2023-03-17T05:44:20.524Z,98648.19
2023-03-17T05:46:49.122Z,98652.59
2023-03-17T05:49:19.236Z,98658.56
2023-03-17T05:51:47.738Z,98657.81
2023-03-17T05:54:16.190Z,98659.84
2023-03-17T05:56:44.767Z,98660.03
2023-03-17T05:59:17.079Z,98659.41
2023-03-17T06:01:46.325Z,98649.63
2023-03-17T06:04:15.596Z,98656.28
2023-03-17T06:06:45.286Z,98656.88
2023-03-17T06:09:13.968Z,98647.75
2023-03-17T06:11:42.033Z,98641.91
2023-03-17T06:14:10.486Z,98644.09
2023-03-17T06:16:38.772Z,98645.63
2023-03-17T06:19:07.172Z,98644.19
2023-03-17T06:21:35.507Z,98643.88
2023-03-17T06:24:05.509Z,98650.28
2023-03-17T06:26:34.058Z,98652.13
2023-03-17T06:29:02.469Z,98651.59
2023-03-17T06:31:30.641Z,98653.38
2023-03-17T06:33:58.711Z,98644.03
2023-03-17T06:36:27.280Z,98648.75
2023-03-17T06:38:55.744Z,98660.44
2023-03-17T06:41:25.512Z,98659.47
2023-03-17T06:43:53.703Z,98652.34
2023-03-17T06:46:21.841Z,98649.72
2023-03-17T06:48:51.109Z,98640.69
2023-03-17T06:51:19.905Z,98656.13
2023-03-17T06:53:48.763Z,98657.34
2023-03-17T06:56:29.230Z,98649.19
2023-03-17T06:59:02.284Z,98646.28
2023-03-17T07:01:32.064Z,98645.72
2023-03-17T07:04:01.273Z,98662.53
2023-03-17T07:06:31.164Z,98661.63
2023-03-17T07:09:02.089Z,98657.63
2023-03-17T07:11:30.923Z,98652.69
2023-03-17T07:14:01.611Z,98653.59
2023-03-17T07:16:31.034Z,98654.78
2023-03-17T07:18:59.910Z,98661.56
2023-03-17T07:21:28.653Z,98647.94
2023-03-17T07:23:56.844Z,98651.09
2023-03-17T07:26:25.102Z,98661.56
2023-03-17T07:28:53.251Z,98654.00
2023-03-17T07:31:23.553Z,98650.63
2023-03-17T07:33:52.620Z,98643.94
2023-03-17T07:36:20.914Z,98645.53
2023-03-17T07:38:49.101Z,98657.13
2023-03-17T07:41:19.705Z,98654.63
2023-03-17T07:43:48.270Z,98651.56
2023-03-17T07:46:19.770Z,98653.44
2023-03-17T07:48:49.997Z,98646.75
2023-03-17T07:51:21.243Z,98637.22
2023-03-17T07:53:50.321Z,98641.19
2023-03-17T07:56:19.041Z,98643.50
2023-03-17T07:58:47.348Z,98633.50
2023-03-17T08:01:15.630Z,98628.22
2023-03-17T08:03:45.941Z,98624.25
2023-03-17T08:06:16.054Z,98624.47
2023-03-17T08:08:44.508Z,98635.75
2023-03-17T08:11:12.824Z,98632.56
2023-03-17T08:13:41.106Z,98635.03
2023-03-17T08:16:09.749Z,98638.28
2023-03-17T08:18:38.415Z,98638.38
2023-03-17T08:21:07.683Z,98632.03
2023-03-17T08:23:39.235Z,98639.03
2023-03-17T08:26:08.256Z,98637.53
2023-03-17T08:28:37.555Z,98636.13
2023-03-17T08:31:12.477Z,98633.75
2023-03-17T08:33:42.578Z,98634.50
2023-03-17T08:36:12.891Z,98623.97
2023-03-17T08:38:44.280Z,98626.97
2023-03-17T08:41:17.505Z,98622.81
2023-03-17T08:43:48.003Z,98630.84
2023-03-17T08:46:19.827Z,98627.41
2023-03-17T08:48:51.256Z,98629.50
2023-03-17T08:51:24.587Z,98625.81
2023-03-17T08:53:55.870Z,98627.59
2023-03-17T08:56:27.355Z,98608.03
2023-03-17T08:58:55.932Z,98610.59
2023-03-17T09:01:25.271Z,98624.59
2023-03-17T09:03:58.927Z,98626.66
2023-03-17T09:06:27.817Z,98643.41
2023-03-17T09:09:00.851Z,98645.00
2023-03-17T09:11:32.886Z,98637.28
2023-03-17T09:14:01.628Z,98638.13
2023-03-17T09:16:34.187Z,98621.19
2023-03-17T09:19:02.974Z,98610.63
2023-03-17T09:21:31.416Z,98604.72
2023-03-17T09:24:02.659Z,98621.19
2023-03-17T09:26:30.956Z,98621.63
2023-03-17T09:28:59.389Z,98619.41
2023-03-17T09:31:27.829Z,98623.09
2023-03-17T09:33:56.023Z,98629.97
2023-03-17T09:36:24.333Z,98624.03
2023-03-17T09:38:53.313Z,98615.78
2023-03-17T09:41:54.102Z,98606.88
2023-03-17T09:44:35.181Z,98600.66
2023-03-17T09:47:14.010Z,98609.25
2023-03-17T09:49:47.513Z,98603.31
2023-03-17T09:52:18.902Z,98608.88
2023-03-17T09:54:49.818Z,98600.41
2023-03-17T09:57:26.517Z,98598.31
2023-03-17T10:00:04.825Z,98591.03
2023-03-17T10:02:35.175Z,98591.22
2023-03-17T10:05:12.981Z,98590.63
2023-03-17T10:07:49.113Z,98590.41
2023-03-17T10:10:24.018Z,98582.03
2023-03-17T10:13:00.342Z,98579.63
2023-03-17T10:15:36.361Z,98575.00
2023-03-17T10:18:11.518Z,98587.78
2023-03-17T10:20:51.634Z,98597.66
2023-03-17T10:23:25.406Z,98586.91
2023-03-17T10:25:54.459Z,98589.13
2023-03-17T10:28:29.819Z,98587.56
2023-03-17T10:31:08.210Z,98580.00
2023-03-17T10:33:36.613Z,98581.88
2023-03-17T10:36:10.044Z,98583.06
2023-03-17T10:38:38.690Z,98579.22
2023-03-17T10:41:15.117Z,98578.38
2023-03-17T10:43:47.351Z,98577.72
2023-03-17T10:46:22.429Z,98575.16
2023-03-17T10:48:57.880Z,98567.69
2023-03-17T10:51:33.184Z,98571.91
2023-03-17T10:54:04.131Z,98568.13
2023-03-17T10:56:37.639Z,98565.34
2023-03-17T10:59:19.504Z,98561.59
2023-03-17T11:01:54.320Z,98561.84
2023-03-17T11:04:29.576Z,98559.78
2023-03-17T11:06:59.461Z,98556.56
2023-03-17T11:09:35.553Z,98554.00
2023-03-17T11:12:06.217Z,98559.53
2023-03-17T11:14:36.554Z,98550.28
2023-03-17T11:17:17.936Z,98548.41
2023-03-17T11:19:56.049Z,98561.97
2023-03-17T11:22:33.948Z,98542.97
2023-03-17T11:25:11.575Z,98546.22
2023-03-17T11:27:50.082Z,98553.25
2023-03-17T11:30:30.608Z,98545.28
2023-03-17T11:33:06.257Z,98548.47
2023-03-17T11:35:48.483Z,98550.19
2023-03-17T11:38:26.224Z,98544.16
2023-03-17T11:41:30.962Z,98550.56
2023-03-17T11:44:18.832Z,98532.09
2023-03-17T11:46:53.743Z,98538.84
2023-03-17T11:49:24.410Z,98535.28
2023-03-17T11:52:02.303Z,98533.63
2023-03-17T11:54:41.896Z,98518.19
2023-03-17T11:57:15.636Z,98525.78
2023-03-17T11:59:52.098Z,98527.97
2023-03-17T12:02:30.870Z,98520.59
2023-03-17T12:05:05.214Z,98514.19
2023-03-17T12:07:38.514Z,98520.63
2023-03-17T12:10:17.633Z,98515.06
2023-03-17T12:12:51.357Z,98506.06
2023-03-17T12:15:27.630Z,98517.53
2023-03-17T12:20:53.200Z,98506.16
2023-03-17T12:23:30.597Z,98503.78
2023-03-17T12:26:06.457Z,98505.19
2023-03-17T12:28:42.603Z,98505.75
2023-03-17T12:31:15.328Z,98515.03
2023-03-17T12:33:54.986Z,98505.59
2023-03-17T12:36:24.369Z,98497.81
2023-03-17T12:38:57.893Z,98501.63
2023-03-17T12:41:40.265Z,98499.34
2023-03-17T12:44:21.745Z,98499.91
2023-03-17T12:47:37.184Z,98484.78
2023-03-17T12:50:24.913Z,98480.22
2023-03-17T12:53:16.481Z,98481.59
2023-03-17T12:55:49.346Z,98478.38
2023-03-17T12:58:30.731Z,98470.94
2023-03-17T13:01:07.358Z,98470.47
2023-03-17T13:03:41.365Z,98462.81
2023-03-17T13:06:21.366Z,98461.91
2023-03-17T13:08:52.266Z,98454.31
2023-03-17T13:11:27.810Z,98458.09
2023-03-17T13:14:17.776Z,98459.50
2023-03-17T13:16:48.326Z,98453.34
2023-03-17T13:19:21.544Z,98464.59
2023-03-17T13:22:14.915Z,98456.16
2023-03-17T13:24:48.612Z,98450.81
2023-03-17T13:27:44.698Z,98444.28
2023-03-17T13:30:45.093Z,98452.00
2023-03-17T13:33:29.389Z,98451.41
2023-03-17T13:36:10.903Z,98447.50
2023-03-17T13:39:04.859Z,98448.47
2023-03-17T13:42:01.135Z,98439.34
2023-03-17T13:45:01.912Z,98432.63
2023-03-17T13:47:35.700Z,98433.47
2023-03-17T13:50:09.683Z,98429.38
2023-03-17T13:52:47.409Z,98432.34
2023-03-17T13:55:38.214Z,98433.00
2023-03-17T13:58:34.913Z,98425.03
2023-03-17T14:01:09.130Z,98432.34
2023-03-17T14:03:45.477Z,98428.97
2023-03-17T14:06:15.338Z,98436.53
2023-03-17T14:08:50.027Z,98437.97
2023-03-17T14:11:25.506Z,98442.47
2023-03-17T14:14:15.235Z,98431.94
2023-03-17T14:16:56.740Z,98435.88
2023-03-17T14:19:28.229Z,98434.16
2023-03-17T14:22:06.366Z,98425.34
2023-03-17T14:24:39.204Z,98421.81
2023-03-17T14:27:11.426Z,98422.06
2023-03-17T14:29:39.792Z,98423.03
2023-03-17T14:32:15.558Z,98421.34
2023-03-17T14:34:44.828Z,98423.03
2023-03-17T14:37:14.478Z,98433.34
2023-03-17T14:39:50.722Z,98418.34
2023-03-17T14:42:20.861Z,98411.88
2023-03-17T14:44:49.479Z,98407.66
2023-03-17T14:47:22.115Z,98405.09
2023-03-17T14:49:51.994Z,98400.53
2023-03-17T14:52:22.512Z,98407.63
2023-03-17T14:54:56.697Z,98396.09
2023-03-17T14:57:29.776Z,98387.56
2023-03-17T15:00:00.254Z,98384.84
2023-03-17T15:02:35.728Z,98381.78
2023-03-17T15:05:26.276Z,98390.38
2023-03-17T15:07:55.241Z,98379.09
2023-03-17T15:10:31.189Z,98376.91
2023-03-17T15:13:04.979Z,98380.13
2023-03-17T15:15:36.067Z,98389.78
2023-03-17T15:18:08.764Z,98390.06
2023-03-17T15:20:37.811Z,98377.28
2023-03-17T15:23:17.532Z,98368.66
2023-03-17T15:25:51.407Z,98377.97
2023-03-17T15:28:22.226Z,98369.38
2023-03-17T15:30:52.290Z,98369.22
2023-03-17T15:33:23.305Z,98365.03
2023-03-17T15:35:52.862Z,98363.44
2023-03-17T15:38:21.706Z,98351.81
2023-03-17T15:40:52.273Z,98350.81
2023-03-17T15:43:21.870Z,98350.09
2023-03-17T15:45:56.405Z,98351.53
2023-03-17T15:48:28.606Z,98346.47
2023-03-17T15:50:58.919Z,98355.34
2023-03-17T15:53:27.754Z,98348.59
2023-03-17T15:56:06.351Z,98352.56
2023-03-17T15:58:35.225Z,98349.91
2023-03-17T16:01:06.015Z,98339.31
2023-03-17T16:03:37.807Z,98340.91
2023-03-17T16:06:15.359Z,98343.16
2023-03-17T16:08:43.707Z,98341.19
2023-03-17T16:11:30.172Z,98349.22
2023-03-17T16:14:00.142Z,98351.72
2023-03-17T16:16:36.810Z,98356.03
2023-03-17T16:19:10.249Z,98357.22
2023-03-17T16:21:40.104Z,98362.19
2023-03-17T16:24:11.766Z,98367.56
2023-03-17T16:26:42.118Z,98374.28
2023-03-17T16:29:14.270Z,98366.88
2023-03-17T16:31:43.859Z,98363.06
2023-03-17T16:34:18.351Z,98363.38
2023-03-17T16:36:47.279Z,98368.69
2023-03-17T16:39:21.701Z,98368.25
2023-03-17T16:41:53.682Z,98367.97
2023-03-17T16:44:23.606Z,98370.50
2023-03-17T16:46:53.375Z,98370.91
2023-03-17T16:49:23.119Z,98375.69
2023-03-17T16:51:52.057Z,98379.34
2023-03-17T16:54:20.654Z,98379.75
2023-03-17T16:56:52.484Z,98377.63
2023-03-17T16:59:33.956Z,98392.22
2023-03-17T17:02:02.821Z,98389.41
2023-03-17T17:04:36.802Z,98388.28
2023-03-17T17:07:06.965Z,98392.53
2023-03-17T17:09:35.418Z,98386.22
2023-03-17T17:12:06.867Z,98385.38
2023-03-17T17:14:35.940Z,98392.06
2023-03-17T17:17:08.963Z,98387.19
2023-03-17T17:19:39.847Z,98379.34
2023-03-17T17:22:09.490Z,98383.81
2023-03-17T17:24:39.287Z,98390.94
2023-03-17T17:27:11.666Z,98379.75
2023-03-17T17:29:40.583Z,98380.72
2023-03-17T17:32:12.817Z,98383.78
2023-03-17T17:34:42.496Z,98384.19
2023-03-17T17:37:11.443Z,98378.31
2023-03-17T17:39:40.013Z,98370.88
2023-03-17T17:42:12.162Z,98372.00
2023-03-17T17:44:43.140Z,98357.03
2023-03-17T17:47:12.105Z,98361.91
2023-03-17T17:49:43.337Z,98358.53
2023-03-17T17:52:13.895Z,98356.16
2023-03-17T17:54:43.243Z,98356.28
2023-03-17T17:57:14.394Z,98356.84
2023-03-17T17:59:43.082Z,98359.66
2023-03-17T18:02:12.124Z,98347.16
2023-03-17T18:04:41.681Z,98351.47
2023-03-17T18:07:10.952Z,98353.69
2023-03-17T18:09:41.751Z,98354.50
2023-03-17T18:12:10.884Z,98378.25
2023-03-17T18:14:41.279Z,98387.00
2023-03-17T18:17:13.036Z,98407.25
2023-03-17T18:19:43.246Z,98400.78
2023-03-17T18:22:11.836Z,98402.91
2023-03-17T18:24:39.900Z,98398.53
2023-03-17T18:27:10.300Z,98391.16
2023-03-17T18:29:39.110Z,98392.91
2023-03-17T18:32:10.847Z,98392.06
2023-03-17T18:34:45.055Z,98400.25
2023-03-17T18:37:15.593Z,98385.31
2023-03-17T18:39:48.382Z,98394.06
2023-03-17T18:42:19.822Z,98395.03
2023-03-17T18:44:48.476Z,98400.56
2023-03-17T18:47:18.694Z,98389.69
2023-03-17T18:49:47.314Z,98403.03
2023-03-17T18:52:15.799Z,98395.47
2023-03-17T18:54:44.233Z,98395.13
2023-03-17T18:57:12.633Z,98403.09
2023-03-17T18:59:43.815Z,98399.19
2023-03-17T19:02:12.180Z,98392.22
2023-03-17T19:04:46.400Z,98397.91
2023-03-17T19:07:14.868Z,98398.41
2023-03-17T19:09:43.277Z,98394.28
2023-03-17T19:12:12.428Z,98396.81
2023-03-17T19:14:41.562Z,98390.66
2023-03-17T19:17:10.505Z,98398.97
2023-03-17T19:19:39.190Z,98395.34
2023-03-17T19:22:09.695Z,98391.72
2023-03-17T19:24:38.802Z,98399.81
2023-03-17T19:27:07.280Z,98398.41
2023-03-17T19:29:35.917Z,98406.66
2023-03-17T19:32:04.084Z,98403.28
2023-03-17T19:34:32.546Z,98417.97
2023-03-17T19:37:02.551Z,98411.34
2023-03-17T19:39:34.098Z,98412.84
2023-03-17T19:42:02.693Z,98413.25
2023-03-17T19:44:30.975Z,98422.72
2023-03-17T19:47:01.696Z,98419.72
2023-03-17T19:49:29.850Z,98415.56
2023-03-17T19:51:58.568Z,98426.53
2023-03-17T19:54:29.660Z,98428.81
2023-03-17T19:56:59.250Z,98429.06
2023-03-17T19:59:27.517Z,98427.03
2023-03-17T20:01:55.991Z,98434.81
2023-03-17T20:04:24.751Z,98426.84
2023-03-17T20:06:55.691Z,98434.88
2023-03-17T20:09:24.952Z,98435.50
2023-03-17T20:11:54.085Z,98439.50
2023-03-17T20:14:24.970Z,98439.22
2023-03-17T20:16:56.802Z,98431.75
2023-03-17T20:19:25.355Z,98424.91
2023-03-17T20:21:54.427Z,98420.53
2023-03-17T20:24:23.174Z,98424.41
2023-03-17T20:26:52.884Z,98430.75
2023-03-17T20:29:21.465Z,98426.88
2023-03-17T20:31:52.005Z,98433.16
2023-03-17T20:34:21.669Z,98437.16
2023-03-17T20:36:51.650Z,98442.28
2023-03-17T20:39:21.251Z,98441.03
2023-03-17T20:41:51.024Z,98436.56
2023-03-17T20:44:22.638Z,98443.44
2023-03-17T20:46:55.154Z,98442.28
2023-03-17T20:49:24.865Z,98437.38
2023-03-17T20:51:53.117Z,98433.38
2023-03-17T20:54:23.427Z,98435.25
2023-03-17T20:56:53.784Z,98432.50
2023-03-17T20:59:22.166Z,98433.03
2023-03-17T21:01:52.820Z,98429.78
2023-03-17T21:04:21.489Z,98431.94
2023-03-17T21:06:49.863Z,98435.06
2023-03-17T21:09:18.515Z,98436.41
2023-03-17T21:11:49.283Z,98428.25
2023-03-17T21:14:17.731Z,98428.22
2023-03-17T21:16:47.428Z,98430.50
2023-03-17T21:19:18.242Z,98427.03
2023-03-17T21:21:48.031Z,98433.06
2023-03-17T21:24:26.910Z,98425.47
2023-03-17T21:26:55.295Z,98420.06
2023-03-17T21:29:24.682Z,98417.53
2023-03-17T21:31:53.666Z,98415.25
2023-03-17T21:34:25.448Z,98414.28
2023-03-17T21:36:54.748Z,98414.88
2023-03-17T21:39:23.485Z,98424.91
2023-03-17T21:41:52.517Z,98427.22
2023-03-17T21:44:21.234Z,98421.53
2023-03-17T21:46:50.967Z,98423.00
2023-03-17T21:49:20.903Z,98420.22
2023-03-17T21:51:51.571Z,98431.41
2023-03-17T21:54:20.794Z,98432.38
2023-03-17T21:56:50.133Z,98432.97
2023-03-17T21:59:18.836Z,98440.78
2023-03-17T22:01:47.052Z,98443.91
2023-03-17T22:04:15.757Z,98429.84
2023-03-17T22:06:46.436Z,98435.63
2023-03-17T22:09:19.083Z,98445.75
2023-03-17T22:11:49.807Z,98437.66
2023-03-17T22:14:22.180Z,98441.59
2023-03-17T22:16:52.451Z,98436.81
2023-03-17T22:19:21.455Z,98440.31
2023-03-17T22:21:49.778Z,98441.41
2023-03-17T22:24:19.836Z,98434.47
2023-03-17T22:26:48.138Z,98435.31
2023-03-17T22:29:16.889Z,98438.69
2023-03-17T22:31:45.099Z,98447.28
2023-03-17T22:34:13.248Z,98446.69
2023-03-17T22:36:41.731Z,98448.50
2023-03-17T22:39:11.007Z,98450.03
2023-03-17T22:41:41.084Z,98454.56
2023-03-17T22:44:12.907Z,98460.06
2023-03-17T22:46:43.456Z,98458.00
2023-03-17T22:49:12.206Z,98456.41
2023-03-17T22:51:42.875Z,98460.50
2023-03-17T22:54:11.902Z,98462.31
2023-03-17T22:56:42.037Z,98454.25
2023-03-17T22:59:11.526Z,98459.66
2023-03-17T23:01:39.978Z,98469.66
2023-03-17T23:04:09.610Z,98461.28
2023-03-17T23:06:38.168Z,98459.38
2023-03-17T23:09:06.659Z,98465.94
2023-03-17T23:11:35.465Z,98462.47
2023-03-17T23:14:06.493Z,98465.28
2023-03-17T23:16:34.852Z,98468.06
2023-03-17T23:19:03.317Z,98459.44
2023-03-17T23:21:33.798Z,98472.44
2023-03-17T23:24:02.567Z,98478.06
2023-03-17T23:26:32.179Z,98480.97
2023-03-17T23:29:00.904Z,98478.63
2023-03-17T23:31:31.050Z,98484.16
2023-03-17T23:33:59.805Z,98482.25
2023-03-17T23:36:28.659Z,98482.59
2023-03-17T23:38:57.840Z,98484.41
2023-03-17T23:41:26.976Z,98481.25
2023-03-17T23:43:55.458Z,98492.78
2023-03-17T23:46:27.538Z,98485.56
2023-03-17T23:48:57.648Z,98499.47
2023-03-17T23:51:26.133Z,98502.13
2023-03-17T23:53:54.638Z,98499.59
2023-03-17T23:56:23.181Z,98497.81
2023-03-17T23:58:51.364Z,98499.22
